sensor_id;sensor_type;location;lat;lon;timestamp;temperature;humidity
2625;DHT22;1322;53.256;10.386;2022-07-17T00:00:02;15.80;99.90
2625;DHT22;1322;53.256;10.386;2022-07-17T00:02:27;15.80;99.90
2625;DHT22;1322;53.256;10.386;2022-07-17T00:04:53;15.80;99.90
2625;DHT22;1322;53.256;10.386;2022-07-17T00:07:18;15.80;99.90
2625;DHT22;1322;53.256;10.386;2022-07-17T00:09:44;15.80;99.90
2625;DHT22;1322;53.256;10.386;2022-07-17T00:12:10;15.80;99.90
2625;DHT22;1322;53.256;10.386;2022-07-17T00:14:35;15.80;99.90
2625;DHT22;1322;53.256;10.386;2022-07-17T00:17:01;15.70;99.90
2625;DHT22;1322;53.256;10.386;2022-07-17T00:19:27;15.70;99.90
2625;DHT22;1322;53.256;10.386;2022-07-17T00:21:53;15.70;99.90
2625;DHT22;1322;53.256;10.386;2022-07-17T00:24:18;15.80;99.90
2625;DHT22;1322;53.256;10.386;2022-07-17T00:26:47;15.80;99.90
2625;DHT22;1322;53.256;10.386;2022-07-17T00:29:13;15.80;99.90
2625;DHT22;1322;53.256;10.386;2022-07-17T00:31:39;15.80;99.90
2625;DHT22;1322;53.256;10.386;2022-07-17T00:34:05;15.80;99.90
2625;DHT22;1322;53.256;10.386;2022-07-17T00:36:30;15.90;99.90
2625;DHT22;1322;53.256;10.386;2022-07-17T00:38:56;15.90;99.90
2625;DHT22;1322;53.256;10.386;2022-07-17T00:41:21;15.90;99.90
2625;DHT22;1322;53.256;10.386;2022-07-17T00:43:47;15.90;99.90
2625;DHT22;1322;53.256;10.386;2022-07-17T00:46:13;15.90;99.90
2625;DHT22;1322;53.256;10.386;2022-07-17T00:48:38;15.90;99.90
2625;DHT22;1322;53.256;10.386;2022-07-17T00:51:04;15.90;99.90
2625;DHT22;1322;53.256;10.386;2022-07-17T00:53:33;15.90;99.90
2625;DHT22;1322;53.256;10.386;2022-07-17T00:56:04;15.80;99.90
2625;DHT22;1322;53.256;10.386;2022-07-17T00:58:34;15.70;99.90
2625;DHT22;1322;53.256;10.386;2022-07-17T01:01:00;15.60;99.90
2625;DHT22;1322;53.256;10.386;2022-07-17T01:03:29;15.50;99.90
2625;DHT22;1322;53.256;10.386;2022-07-17T01:05:55;15.50;99.90
2625;DHT22;1322;53.256;10.386;2022-07-17T01:08:20;15.40;99.90
2625;DHT22;1322;53.256;10.386;2022-07-17T01:10:46;15.30;99.90
2625;DHT22;1322;53.256;10.386;2022-07-17T01:13:12;15.20;99.90
2625;DHT22;1322;53.256;10.386;2022-07-17T01:15:39;15.20;99.90
2625;DHT22;1322;53.256;10.386;2022-07-17T01:18:10;15.10;99.90
2625;DHT22;1322;53.256;10.386;2022-07-17T01:20:37;15.00;99.90
2625;DHT22;1322;53.256;10.386;2022-07-17T01:23:03;14.90;99.90
2625;DHT22;1322;53.256;10.386;2022-07-17T01:25:29;14.90;99.90
2625;DHT22;1322;53.256;10.386;2022-07-17T01:27:55;14.90;99.90
2625;DHT22;1322;53.256;10.386;2022-07-17T01:30:20;14.80;99.90
2625;DHT22;1322;53.256;10.386;2022-07-17T01:32:46;14.80;99.90
2625;DHT22;1322;53.256;10.386;2022-07-17T01:35:14;14.70;99.90
2625;DHT22;1322;53.256;10.386;2022-07-17T01:37:40;14.70;99.90
2625;DHT22;1322;53.256;10.386;2022-07-17T01:40:07;14.70;99.90
2625;DHT22;1322;53.256;10.386;2022-07-17T01:42:34;14.60;99.90
2625;DHT22;1322;53.256;10.386;2022-07-17T01:45:00;14.60;99.90
2625;DHT22;1322;53.256;10.386;2022-07-17T01:47:25;14.60;99.90
2625;DHT22;1322;53.256;10.386;2022-07-17T01:49:54;14.50;99.90
2625;DHT22;1322;53.256;10.386;2022-07-17T01:52:21;14.50;99.90
2625;DHT22;1322;53.256;10.386;2022-07-17T01:54:47;14.50;99.90
2625;DHT22;1322;53.256;10.386;2022-07-17T01:57:13;14.50;99.90
2625;DHT22;1322;53.256;10.386;2022-07-17T01:59:40;14.50;99.90
2625;DHT22;1322;53.256;10.386;2022-07-17T02:02:07;14.50;99.90
2625;DHT22;1322;53.256;10.386;2022-07-17T02:04:34;14.40;99.90
2625;DHT22;1322;53.256;10.386;2022-07-17T02:07:00;14.40;99.90
2625;DHT22;1322;53.256;10.386;2022-07-17T02:09:27;14.40;99.90
2625;DHT22;1322;53.256;10.386;2022-07-17T02:11:52;14.30;99.90
2625;DHT22;1322;53.256;10.386;2022-07-17T02:14:18;14.40;99.90
2625;DHT22;1322;53.256;10.386;2022-07-17T02:16:44;14.30;99.90
2625;DHT22;1322;53.256;10.386;2022-07-17T02:19:09;14.30;99.90
2625;DHT22;1322;53.256;10.386;2022-07-17T02:21:35;14.20;99.90
2625;DHT22;1322;53.256;10.386;2022-07-17T02:24:01;14.20;99.90
2625;DHT22;1322;53.256;10.386;2022-07-17T02:26:26;14.20;99.90
2625;DHT22;1322;53.256;10.386;2022-07-17T02:28:52;14.20;99.90
2625;DHT22;1322;53.256;10.386;2022-07-17T02:31:17;14.20;99.90
2625;DHT22;1322;53.256;10.386;2022-07-17T02:33:43;14.10;99.90
2625;DHT22;1322;53.256;10.386;2022-07-17T02:36:08;14.10;99.90
2625;DHT22;1322;53.256;10.386;2022-07-17T02:38:34;14.00;99.90
2625;DHT22;1322;53.256;10.386;2022-07-17T02:41:00;14.10;99.90
2625;DHT22;1322;53.256;10.386;2022-07-17T02:43:25;14.00;99.90
2625;DHT22;1322;53.256;10.386;2022-07-17T02:45:51;14.00;99.90
2625;DHT22;1322;53.256;10.386;2022-07-17T02:48:17;13.90;99.90
2625;DHT22;1322;53.256;10.386;2022-07-17T02:50:42;13.90;99.90
2625;DHT22;1322;53.256;10.386;2022-07-17T02:53:08;13.90;99.90
2625;DHT22;1322;53.256;10.386;2022-07-17T02:58:00;13.80;99.90
2625;DHT22;1322;53.256;10.386;2022-07-17T03:00:25;13.80;99.90
2625;DHT22;1322;53.256;10.386;2022-07-17T03:02:53;13.70;99.90
2625;DHT22;1322;53.256;10.386;2022-07-17T03:05:19;13.70;99.90
2625;DHT22;1322;53.256;10.386;2022-07-17T03:07:45;13.70;99.90
2625;DHT22;1322;53.256;10.386;2022-07-17T03:10:11;13.70;99.90
2625;DHT22;1322;53.256;10.386;2022-07-17T03:12:37;13.60;99.90
2625;DHT22;1322;53.256;10.386;2022-07-17T03:15:04;13.60;99.90
2625;DHT22;1322;53.256;10.386;2022-07-17T03:17:30;13.60;99.90
2625;DHT22;1322;53.256;10.386;2022-07-17T03:19:55;13.60;99.90
2625;DHT22;1322;53.256;10.386;2022-07-17T03:24:47;13.70;99.90
2625;DHT22;1322;53.256;10.386;2022-07-17T03:27:13;13.70;99.90
2625;DHT22;1322;53.256;10.386;2022-07-17T03:29:38;13.80;99.90
2625;DHT22;1322;53.256;10.386;2022-07-17T03:32:05;13.90;99.90
2625;DHT22;1322;53.256;10.386;2022-07-17T03:34:30;14.00;99.90
2625;DHT22;1322;53.256;10.386;2022-07-17T03:36:56;14.10;99.90
2625;DHT22;1322;53.256;10.386;2022-07-17T03:39:21;14.20;99.90
2625;DHT22;1322;53.256;10.386;2022-07-17T03:41:47;14.20;99.90
2625;DHT22;1322;53.256;10.386;2022-07-17T03:44:13;14.30;99.90
2625;DHT22;1322;53.256;10.386;2022-07-17T03:46:38;14.40;99.90
2625;DHT22;1322;53.256;10.386;2022-07-17T03:49:04;14.40;99.90
2625;DHT22;1322;53.256;10.386;2022-07-17T03:51:29;14.50;99.90
2625;DHT22;1322;53.256;10.386;2022-07-17T03:53:55;14.50;99.90
2625;DHT22;1322;53.256;10.386;2022-07-17T03:56:21;14.60;99.90
2625;DHT22;1322;53.256;10.386;2022-07-17T03:58:46;14.70;99.90
2625;DHT22;1322;53.256;10.386;2022-07-17T04:01:12;14.70;99.90
2625;DHT22;1322;53.256;10.386;2022-07-17T04:03:38;14.80;99.90
2625;DHT22;1322;53.256;10.386;2022-07-17T04:06:03;14.80;99.90
2625;DHT22;1322;53.256;10.386;2022-07-17T04:08:29;14.90;99.90
2625;DHT22;1322;53.256;10.386;2022-07-17T04:10:55;15.00;99.90
2625;DHT22;1322;53.256;10.386;2022-07-17T04:13:20;15.10;99.90
2625;DHT22;1322;53.256;10.386;2022-07-17T04:15:46;15.10;99.90
2625;DHT22;1322;53.256;10.386;2022-07-17T04:18:19;15.10;99.90
2625;DHT22;1322;53.256;10.386;2022-07-17T04:20:47;15.20;99.90
2625;DHT22;1322;53.256;10.386;2022-07-17T04:23:13;15.20;99.90
2625;DHT22;1322;53.256;10.386;2022-07-17T04:25:39;15.30;99.90
2625;DHT22;1322;53.256;10.386;2022-07-17T04:28:05;15.30;99.90
2625;DHT22;1322;53.256;10.386;2022-07-17T04:30:31;15.30;99.90
2625;DHT22;1322;53.256;10.386;2022-07-17T04:32:57;15.40;99.90
2625;DHT22;1322;53.256;10.386;2022-07-17T04:35:22;15.50;99.90
2625;DHT22;1322;53.256;10.386;2022-07-17T04:37:48;15.60;99.90
2625;DHT22;1322;53.256;10.386;2022-07-17T04:40:14;15.70;99.90
2625;DHT22;1322;53.256;10.386;2022-07-17T04:42:39;15.80;99.90
2625;DHT22;1322;53.256;10.386;2022-07-17T04:45:06;16.00;99.90
2625;DHT22;1322;53.256;10.386;2022-07-17T04:47:33;16.00;99.90
2625;DHT22;1322;53.256;10.386;2022-07-17T04:49:58;16.30;99.90
2625;DHT22;1322;53.256;10.386;2022-07-17T04:52:24;16.30;99.90
2625;DHT22;1322;53.256;10.386;2022-07-17T04:54:50;16.40;99.90
2625;DHT22;1322;53.256;10.386;2022-07-17T04:57:15;16.40;99.90
2625;DHT22;1322;53.256;10.386;2022-07-17T04:59:41;16.60;99.90
2625;DHT22;1322;53.256;10.386;2022-07-17T05:02:06;16.70;99.90
2625;DHT22;1322;53.256;10.386;2022-07-17T05:04:32;16.80;99.90
2625;DHT22;1322;53.256;10.386;2022-07-17T05:06:58;16.90;99.90
2625;DHT22;1322;53.256;10.386;2022-07-17T05:09:23;17.10;99.90
2625;DHT22;1322;53.256;10.386;2022-07-17T05:11:49;17.30;99.90
2625;DHT22;1322;53.256;10.386;2022-07-17T05:14:15;17.40;99.90
2625;DHT22;1322;53.256;10.386;2022-07-17T05:16:40;17.40;99.90
2625;DHT22;1322;53.256;10.386;2022-07-17T05:19:06;17.40;99.90
2625;DHT22;1322;53.256;10.386;2022-07-17T05:21:31;17.50;99.90
2625;DHT22;1322;53.256;10.386;2022-07-17T05:23:57;17.50;99.90
2625;DHT22;1322;53.256;10.386;2022-07-17T05:26:24;17.50;99.90
2625;DHT22;1322;53.256;10.386;2022-07-17T05:28:50;17.50;99.90
2625;DHT22;1322;53.256;10.386;2022-07-17T05:31:16;17.70;99.90
2625;DHT22;1322;53.256;10.386;2022-07-17T05:33:42;17.80;99.90
2625;DHT22;1322;53.256;10.386;2022-07-17T05:36:08;17.90;99.90
2625;DHT22;1322;53.256;10.386;2022-07-17T05:38:34;17.90;99.90
2625;DHT22;1322;53.256;10.386;2022-07-17T05:41:00;17.90;99.90
2625;DHT22;1322;53.256;10.386;2022-07-17T05:43:26;17.90;99.90
2625;DHT22;1322;53.256;10.386;2022-07-17T05:45:55;17.80;99.90
2625;DHT22;1322;53.256;10.386;2022-07-17T05:48:21;17.90;99.90
2625;DHT22;1322;53.256;10.386;2022-07-17T05:50:47;17.80;99.90
2625;DHT22;1322;53.256;10.386;2022-07-17T05:53:12;17.80;99.90
2625;DHT22;1322;53.256;10.386;2022-07-17T05:55:39;17.80;99.90
2625;DHT22;1322;53.256;10.386;2022-07-17T05:58:06;17.70;99.90
2625;DHT22;1322;53.256;10.386;2022-07-17T06:00:31;17.70;99.90
2625;DHT22;1322;53.256;10.386;2022-07-17T06:02:57;17.70;99.90
2625;DHT22;1322;53.256;10.386;2022-07-17T06:05:23;17.80;99.90
2625;DHT22;1322;53.256;10.386;2022-07-17T06:07:48;17.80;99.90
2625;DHT22;1322;53.256;10.386;2022-07-17T06:10:14;17.90;99.90
2625;DHT22;1322;53.256;10.386;2022-07-17T06:12:40;18.00;99.90
2625;DHT22;1322;53.256;10.386;2022-07-17T06:15:05;18.10;99.90
2625;DHT22;1322;53.256;10.386;2022-07-17T06:17:31;18.20;99.90
2625;DHT22;1322;53.256;10.386;2022-07-17T06:19:57;18.20;99.90
2625;DHT22;1322;53.256;10.386;2022-07-17T06:22:22;18.30;99.90
2625;DHT22;1322;53.256;10.386;2022-07-17T06:24:48;18.30;99.90
2625;DHT22;1322;53.256;10.386;2022-07-17T06:27:14;18.30;99.90
2625;DHT22;1322;53.256;10.386;2022-07-17T06:29:40;18.30;99.90
2625;DHT22;1322;53.256;10.386;2022-07-17T06:32:05;18.40;99.90
2625;DHT22;1322;53.256;10.386;2022-07-17T06:34:31;18.50;99.90
2625;DHT22;1322;53.256;10.386;2022-07-17T06:36:57;18.70;99.90
2625;DHT22;1322;53.256;10.386;2022-07-17T06:39:22;19.10;99.90
2625;DHT22;1322;53.256;10.386;2022-07-17T06:41:48;19.60;99.90
2625;DHT22;1322;53.256;10.386;2022-07-17T06:44:14;20.00;99.90
2625;DHT22;1322;53.256;10.386;2022-07-17T06:46:39;20.30;99.90
2625;DHT22;1322;53.256;10.386;2022-07-17T06:49:05;20.40;99.90
2625;DHT22;1322;53.256;10.386;2022-07-17T06:51:30;20.40;99.90
2625;DHT22;1322;53.256;10.386;2022-07-17T06:53:56;20.30;99.90
2625;DHT22;1322;53.256;10.386;2022-07-17T06:56:22;20.20;99.90
2625;DHT22;1322;53.256;10.386;2022-07-17T06:58:47;20.10;99.90
2625;DHT22;1322;53.256;10.386;2022-07-17T07:01:13;20.00;99.90
2625;DHT22;1322;53.256;10.386;2022-07-17T07:03:39;20.00;99.90
2625;DHT22;1322;53.256;10.386;2022-07-17T07:06:04;20.10;99.90
2625;DHT22;1322;53.256;10.386;2022-07-17T07:08:30;20.10;99.90
2625;DHT22;1322;53.256;10.386;2022-07-17T07:10:56;20.20;99.90
2625;DHT22;1322;53.256;10.386;2022-07-17T07:13:22;20.20;99.90
2625;DHT22;1322;53.256;10.386;2022-07-17T07:15:47;20.30;99.90
2625;DHT22;1322;53.256;10.386;2022-07-17T07:18:13;20.40;99.90
2625;DHT22;1322;53.256;10.386;2022-07-17T07:20:38;20.40;99.90
2625;DHT22;1322;53.256;10.386;2022-07-17T07:23:04;20.40;99.90
2625;DHT22;1322;53.256;10.386;2022-07-17T07:25:31;20.50;99.90
2625;DHT22;1322;53.256;10.386;2022-07-17T07:27:56;20.80;99.90
2625;DHT22;1322;53.256;10.386;2022-07-17T07:30:22;21.00;99.90
2625;DHT22;1322;53.256;10.386;2022-07-17T07:32:47;20.90;99.90
2625;DHT22;1322;53.256;10.386;2022-07-17T07:35:13;20.80;99.90
2625;DHT22;1322;53.256;10.386;2022-07-17T07:37:39;20.70;99.90
2625;DHT22;1322;53.256;10.386;2022-07-17T07:40:06;20.30;99.90
2625;DHT22;1322;53.256;10.386;2022-07-17T07:42:32;19.90;99.90
2625;DHT22;1322;53.256;10.386;2022-07-17T07:44:58;19.80;99.90
2625;DHT22;1322;53.256;10.386;2022-07-17T07:47:25;19.80;99.90
2625;DHT22;1322;53.256;10.386;2022-07-17T07:49:50;19.90;99.90
2625;DHT22;1322;53.256;10.386;2022-07-17T07:52:16;20.10;99.90
2625;DHT22;1322;53.256;10.386;2022-07-17T07:54:41;20.30;99.90
2625;DHT22;1322;53.256;10.386;2022-07-17T07:57:07;20.30;99.90
2625;DHT22;1322;53.256;10.386;2022-07-17T07:59:33;20.40;99.90
2625;DHT22;1322;53.256;10.386;2022-07-17T08:02:00;20.40;99.90
2625;DHT22;1322;53.256;10.386;2022-07-17T08:04:25;20.80;99.90
2625;DHT22;1322;53.256;10.386;2022-07-17T08:06:51;21.30;99.90
2625;DHT22;1322;53.256;10.386;2022-07-17T08:09:17;21.90;99.90
2625;DHT22;1322;53.256;10.386;2022-07-17T08:11:42;22.30;99.90
2625;DHT22;1322;53.256;10.386;2022-07-17T08:14:08;22.40;99.90
2625;DHT22;1322;53.256;10.386;2022-07-17T08:16:34;22.00;99.90
2625;DHT22;1322;53.256;10.386;2022-07-17T08:19:00;22.00;99.90
2625;DHT22;1322;53.256;10.386;2022-07-17T08:21:26;22.20;99.90
2625;DHT22;1322;53.256;10.386;2022-07-17T08:23:51;22.40;99.90
2625;DHT22;1322;53.256;10.386;2022-07-17T08:26:17;22.20;99.90
2625;DHT22;1322;53.256;10.386;2022-07-17T08:28:43;22.10;99.90
2625;DHT22;1322;53.256;10.386;2022-07-17T08:31:09;21.80;99.90
2625;DHT22;1322;53.256;10.386;2022-07-17T08:33:35;21.60;99.90
2625;DHT22;1322;53.256;10.386;2022-07-17T08:36:01;21.40;99.90
2625;DHT22;1322;53.256;10.386;2022-07-17T08:38:26;21.20;99.90
2625;DHT22;1322;53.256;10.386;2022-07-17T08:40:52;21.10;99.90
2625;DHT22;1322;53.256;10.386;2022-07-17T08:43:19;20.90;99.90
2625;DHT22;1322;53.256;10.386;2022-07-17T08:45:45;20.80;99.90
2625;DHT22;1322;53.256;10.386;2022-07-17T08:48:13;20.60;99.90
2625;DHT22;1322;53.256;10.386;2022-07-17T08:50:42;20.70;99.90
2625;DHT22;1322;53.256;10.386;2022-07-17T08:53:08;20.90;99.90
2625;DHT22;1322;53.256;10.386;2022-07-17T08:55:34;21.30;99.90
2625;DHT22;1322;53.256;10.386;2022-07-17T08:58:00;21.70;99.90
2625;DHT22;1322;53.256;10.386;2022-07-17T09:00:27;21.90;99.90
2625;DHT22;1322;53.256;10.386;2022-07-17T09:03:13;21.70;99.90
2625;DHT22;1322;53.256;10.386;2022-07-17T09:05:40;21.30;99.90
2625;DHT22;1322;53.256;10.386;2022-07-17T09:08:08;21.10;99.90
2625;DHT22;1322;53.256;10.386;2022-07-17T09:10:43;21.10;99.90
2625;DHT22;1322;53.256;10.386;2022-07-17T09:13:28;21.20;99.90
2625;DHT22;1322;53.256;10.386;2022-07-17T09:18:50;21.20;99.90
2625;DHT22;1322;53.256;10.386;2022-07-17T09:21:20;21.00;99.90
2625;DHT22;1322;53.256;10.386;2022-07-17T09:24:06;21.00;99.90
2625;DHT22;1322;53.256;10.386;2022-07-17T09:26:35;20.80;99.90
2625;DHT22;1322;53.256;10.386;2022-07-17T09:29:08;20.80;99.90
2625;DHT22;1322;53.256;10.386;2022-07-17T09:31:37;20.90;99.90
2625;DHT22;1322;53.256;10.386;2022-07-17T09:34:02;21.30;99.90
2625;DHT22;1322;53.256;10.386;2022-07-17T09:36:28;21.50;99.90
2625;DHT22;1322;53.256;10.386;2022-07-17T09:38:56;21.60;99.90
2625;DHT22;1322;53.256;10.386;2022-07-17T09:41:24;21.70;99.90
2625;DHT22;1322;53.256;10.386;2022-07-17T09:44:00;22.10;99.90
2625;DHT22;1322;53.256;10.386;2022-07-17T09:46:31;22.20;99.90
2625;DHT22;1322;53.256;10.386;2022-07-17T09:49:06;22.30;99.90
2625;DHT22;1322;53.256;10.386;2022-07-17T09:51:38;22.40;99.90
2625;DHT22;1322;53.256;10.386;2022-07-17T09:54:06;22.20;99.90
2625;DHT22;1322;53.256;10.386;2022-07-17T09:56:34;21.70;99.90
2625;DHT22;1322;53.256;10.386;2022-07-17T09:59:05;21.50;99.90
2625;DHT22;1322;53.256;10.386;2022-07-17T10:01:32;21.60;99.90
2625;DHT22;1322;53.256;10.386;2022-07-17T10:03:58;22.00;99.90
2625;DHT22;1322;53.256;10.386;2022-07-17T10:06:26;22.30;99.90
2625;DHT22;1322;53.256;10.386;2022-07-17T10:08:53;22.30;99.90
2625;DHT22;1322;53.256;10.386;2022-07-17T10:11:24;22.20;99.90
2625;DHT22;1322;53.256;10.386;2022-07-17T10:13:53;21.90;99.90
2625;DHT22;1322;53.256;10.386;2022-07-17T10:16:24;21.70;99.90
2625;DHT22;1322;53.256;10.386;2022-07-17T10:18:50;21.60;99.90
2625;DHT22;1322;53.256;10.386;2022-07-17T10:21:21;21.70;99.90
2625;DHT22;1322;53.256;10.386;2022-07-17T10:28:56;22.60;99.90
2625;DHT22;1322;53.256;10.386;2022-07-17T10:31:27;22.50;99.90
2625;DHT22;1322;53.256;10.386;2022-07-17T10:34:01;22.20;99.90
2625;DHT22;1322;53.256;10.386;2022-07-17T10:36:41;21.90;99.90
2625;DHT22;1322;53.256;10.386;2022-07-17T10:39:19;21.90;99.90
2625;DHT22;1322;53.256;10.386;2022-07-17T10:41:59;22.10;99.90
2625;DHT22;1322;53.256;10.386;2022-07-17T10:44:29;22.20;99.90
2625;DHT22;1322;53.256;10.386;2022-07-17T10:46:56;22.10;99.90
2625;DHT22;1322;53.256;10.386;2022-07-17T10:49:25;22.10;99.90
2625;DHT22;1322;53.256;10.386;2022-07-17T10:51:51;22.40;99.90
2625;DHT22;1322;53.256;10.386;2022-07-17T10:54:31;22.60;99.90
2625;DHT22;1322;53.256;10.386;2022-07-17T10:56:57;22.50;99.90
2625;DHT22;1322;53.256;10.386;2022-07-17T10:59:25;22.40;99.90
2625;DHT22;1322;53.256;10.386;2022-07-17T11:01:56;22.20;99.90
2625;DHT22;1322;53.256;10.386;2022-07-17T11:04:22;22.00;99.90
2625;DHT22;1322;53.256;10.386;2022-07-17T11:06:48;22.00;99.90
2625;DHT22;1322;53.256;10.386;2022-07-17T11:09:13;22.20;99.90
2625;DHT22;1322;53.256;10.386;2022-07-17T11:16:35;22.30;99.90
2625;DHT22;1322;53.256;10.386;2022-07-17T11:19:01;22.40;99.90
2625;DHT22;1322;53.256;10.386;2022-07-17T11:21:26;22.50;99.90
2625;DHT22;1322;53.256;10.386;2022-07-17T11:23:54;22.40;99.90
2625;DHT22;1322;53.256;10.386;2022-07-17T11:26:21;22.20;99.90
2625;DHT22;1322;53.256;10.386;2022-07-17T11:28:48;22.10;99.90
2625;DHT22;1322;53.256;10.386;2022-07-17T11:31:25;22.00;99.90
2625;DHT22;1322;53.256;10.386;2022-07-17T11:34:04;22.00;99.90
2625;DHT22;1322;53.256;10.386;2022-07-17T11:36:34;21.90;99.90
2625;DHT22;1322;53.256;10.386;2022-07-17T11:39:08;22.00;99.90
2625;DHT22;1322;53.256;10.386;2022-07-17T11:41:38;22.10;99.90
2625;DHT22;1322;53.256;10.386;2022-07-17T11:44:09;22.20;99.90
2625;DHT22;1322;53.256;10.386;2022-07-17T11:46:36;22.10;99.90
2625;DHT22;1322;53.256;10.386;2022-07-17T11:49:02;22.30;99.90
2625;DHT22;1322;53.256;10.386;2022-07-17T11:51:36;22.30;99.90
2625;DHT22;1322;53.256;10.386;2022-07-17T11:54:05;22.40;99.90
2625;DHT22;1322;53.256;10.386;2022-07-17T11:56:30;22.50;99.90
2625;DHT22;1322;53.256;10.386;2022-07-17T11:58:56;22.50;99.90
2625;DHT22;1322;53.256;10.386;2022-07-17T12:01:22;22.50;99.90
2625;DHT22;1322;53.256;10.386;2022-07-17T12:03:58;22.40;99.90
2625;DHT22;1322;53.256;10.386;2022-07-17T12:06:25;22.30;99.90
2625;DHT22;1322;53.256;10.386;2022-07-17T12:08:52;22.30;99.90
2625;DHT22;1322;53.256;10.386;2022-07-17T12:11:18;22.40;99.90
2625;DHT22;1322;53.256;10.386;2022-07-17T12:13:45;22.50;99.90
2625;DHT22;1322;53.256;10.386;2022-07-17T12:16:24;22.50;99.90
2625;DHT22;1322;53.256;10.386;2022-07-17T12:19:02;22.30;99.90
2625;DHT22;1322;53.256;10.386;2022-07-17T12:21:30;22.40;99.90
2625;DHT22;1322;53.256;10.386;2022-07-17T12:24:01;22.60;99.90
2625;DHT22;1322;53.256;10.386;2022-07-17T12:26:28;22.70;99.90
2625;DHT22;1322;53.256;10.386;2022-07-17T12:28:53;22.80;99.90
2625;DHT22;1322;53.256;10.386;2022-07-17T12:31:19;22.70;99.90
2625;DHT22;1322;53.256;10.386;2022-07-17T12:33:46;22.70;99.90
2625;DHT22;1322;53.256;10.386;2022-07-17T12:36:12;22.70;99.90
2625;DHT22;1322;53.256;10.386;2022-07-17T12:38:38;22.80;99.90
2625;DHT22;1322;53.256;10.386;2022-07-17T12:41:04;22.90;99.90
2625;DHT22;1322;53.256;10.386;2022-07-17T12:43:30;23.10;99.90
2625;DHT22;1322;53.256;10.386;2022-07-17T12:45:56;23.20;99.90
2625;DHT22;1322;53.256;10.386;2022-07-17T12:48:21;23.30;99.90
2625;DHT22;1322;53.256;10.386;2022-07-17T12:50:47;23.40;99.90
2625;DHT22;1322;53.256;10.386;2022-07-17T12:53:13;23.30;99.90
2625;DHT22;1322;53.256;10.386;2022-07-17T12:55:39;23.20;99.90
2625;DHT22;1322;53.256;10.386;2022-07-17T12:58:05;23.30;99.90
2625;DHT22;1322;53.256;10.386;2022-07-17T13:00:31;23.10;99.90
2625;DHT22;1322;53.256;10.386;2022-07-17T13:02:57;23.10;99.90
2625;DHT22;1322;53.256;10.386;2022-07-17T13:05:23;22.90;99.90
2625;DHT22;1322;53.256;10.386;2022-07-17T13:07:49;23.30;99.90
2625;DHT22;1322;53.256;10.386;2022-07-17T13:10:15;23.10;99.90
2625;DHT22;1322;53.256;10.386;2022-07-17T13:12:40;23.10;99.90
2625;DHT22;1322;53.256;10.386;2022-07-17T13:15:06;23.10;99.90
2625;DHT22;1322;53.256;10.386;2022-07-17T13:17:32;23.10;99.90
2625;DHT22;1322;53.256;10.386;2022-07-17T13:19:58;23.10;99.90
2625;DHT22;1322;53.256;10.386;2022-07-17T13:22:23;23.10;99.90
2625;DHT22;1322;53.256;10.386;2022-07-17T13:24:49;23.10;99.90
2625;DHT22;1322;53.256;10.386;2022-07-17T13:27:15;23.00;99.90
2625;DHT22;1322;53.256;10.386;2022-07-17T13:29:40;23.10;99.90
2625;DHT22;1322;53.256;10.386;2022-07-17T13:32:06;23.20;99.90
2625;DHT22;1322;53.256;10.386;2022-07-17T13:34:31;23.30;99.90
2625;DHT22;1322;53.256;10.386;2022-07-17T13:36:57;23.30;99.90
2625;DHT22;1322;53.256;10.386;2022-07-17T13:39:23;23.40;99.90
2625;DHT22;1322;53.256;10.386;2022-07-17T13:41:49;23.40;99.90
2625;DHT22;1322;53.256;10.386;2022-07-17T13:44:14;23.40;99.90
2625;DHT22;1322;53.256;10.386;2022-07-17T13:46:40;23.40;99.90
2625;DHT22;1322;53.256;10.386;2022-07-17T13:49:05;23.40;99.90
2625;DHT22;1322;53.256;10.386;2022-07-17T13:51:32;23.50;99.90
2625;DHT22;1322;53.256;10.386;2022-07-17T13:53:58;23.60;99.90
2625;DHT22;1322;53.256;10.386;2022-07-17T13:56:26;23.60;99.90
2625;DHT22;1322;53.256;10.386;2022-07-17T13:58:52;23.60;99.90
2625;DHT22;1322;53.256;10.386;2022-07-17T14:01:18;23.40;99.90
2625;DHT22;1322;53.256;10.386;2022-07-17T14:03:43;23.40;99.90
2625;DHT22;1322;53.256;10.386;2022-07-17T14:06:09;23.50;99.90
2625;DHT22;1322;53.256;10.386;2022-07-17T14:08:35;23.40;99.90
2625;DHT22;1322;53.256;10.386;2022-07-17T14:11:01;23.30;99.90
2625;DHT22;1322;53.256;10.386;2022-07-17T14:13:27;23.30;99.90
2625;DHT22;1322;53.256;10.386;2022-07-17T14:15:53;23.40;99.90
2625;DHT22;1322;53.256;10.386;2022-07-17T14:18:18;23.40;99.90
2625;DHT22;1322;53.256;10.386;2022-07-17T14:20:44;23.60;99.90
2625;DHT22;1322;53.256;10.386;2022-07-17T14:23:11;23.60;99.90
2625;DHT22;1322;53.256;10.386;2022-07-17T14:25:36;23.60;99.90
2625;DHT22;1322;53.256;10.386;2022-07-17T14:28:02;23.60;99.90
2625;DHT22;1322;53.256;10.386;2022-07-17T14:30:28;23.60;99.90
2625;DHT22;1322;53.256;10.386;2022-07-17T14:32:54;23.70;99.90
2625;DHT22;1322;53.256;10.386;2022-07-17T14:35:19;23.70;99.90
2625;DHT22;1322;53.256;10.386;2022-07-17T14:37:45;23.70;99.90
2625;DHT22;1322;53.256;10.386;2022-07-17T14:40:12;23.70;99.90
2625;DHT22;1322;53.256;10.386;2022-07-17T14:42:38;23.70;99.90
2625;DHT22;1322;53.256;10.386;2022-07-17T14:45:04;23.80;99.90
2625;DHT22;1322;53.256;10.386;2022-07-17T14:47:30;23.90;99.90
2625;DHT22;1322;53.256;10.386;2022-07-17T14:49:55;23.90;99.90
2625;DHT22;1322;53.256;10.386;2022-07-17T14:52:21;23.90;99.90
2625;DHT22;1322;53.256;10.386;2022-07-17T14:54:47;23.90;99.90
2625;DHT22;1322;53.256;10.386;2022-07-17T14:57:13;24.00;99.90
2625;DHT22;1322;53.256;10.386;2022-07-17T14:59:39;23.90;99.90
2625;DHT22;1322;53.256;10.386;2022-07-17T15:02:04;23.90;99.90
2625;DHT22;1322;53.256;10.386;2022-07-17T15:04:30;23.90;99.90
2625;DHT22;1322;53.256;10.386;2022-07-17T15:06:56;23.90;99.90
2625;DHT22;1322;53.256;10.386;2022-07-17T15:09:21;23.90;99.90
2625;DHT22;1322;53.256;10.386;2022-07-17T15:11:47;23.90;99.90
2625;DHT22;1322;53.256;10.386;2022-07-17T15:14:13;23.80;99.90
2625;DHT22;1322;53.256;10.386;2022-07-17T15:16:39;24.00;99.90
2625;DHT22;1322;53.256;10.386;2022-07-17T15:19:04;23.80;99.90
2625;DHT22;1322;53.256;10.386;2022-07-17T15:21:30;23.80;99.90
2625;DHT22;1322;53.256;10.386;2022-07-17T15:23:55;23.90;99.90
2625;DHT22;1322;53.256;10.386;2022-07-17T15:26:21;23.90;99.90
2625;DHT22;1322;53.256;10.386;2022-07-17T15:28:47;23.90;99.90
2625;DHT22;1322;53.256;10.386;2022-07-17T15:31:12;23.90;99.90
2625;DHT22;1322;53.256;10.386;2022-07-17T15:33:38;23.80;99.90
2625;DHT22;1322;53.256;10.386;2022-07-17T15:36:10;23.90;99.90
2625;DHT22;1322;53.256;10.386;2022-07-17T15:38:38;23.80;99.90
2625;DHT22;1322;53.256;10.386;2022-07-17T15:41:04;23.60;99.90
2625;DHT22;1322;53.256;10.386;2022-07-17T15:43:30;23.70;99.90
2625;DHT22;1322;53.256;10.386;2022-07-17T15:45:56;23.70;99.90
2625;DHT22;1322;53.256;10.386;2022-07-17T15:48:21;23.70;99.90
2625;DHT22;1322;53.256;10.386;2022-07-17T15:50:47;23.70;99.90
2625;DHT22;1322;53.256;10.386;2022-07-17T15:53:13;23.70;99.90
2625;DHT22;1322;53.256;10.386;2022-07-17T15:55:38;23.70;99.90
2625;DHT22;1322;53.256;10.386;2022-07-17T15:58:04;23.60;99.90